Aérodrome :
LOGIN :

S'inscrire | Disclaimer

   EN    FR    IT 

 










Légende :    VFR   VFR Marginal   IFR   IFR Intensif   IFR Très Intensif
Visi : 
Plafond : 
>= 8 km
>= 3000ft
5 à 8 km
1000 à 3000 ft
1500m à 5 km
500 à 1000 ft
800 à 1500m
200 à 500 ft
< 800m
< 200 ft
Symboles :   Orages  Brouillard  Fortes neiges  Fortes précipitations  Vent > 20 kt
SIGMETs :   Divers  Orages  Givrage  Turbulence  Onde Orograph.  Cendres Volcan.







- Altitude de l'aérodrome : 1416 ft
- Code IATA : ZRH


LSZH - Zurich

DERNIER METAR :
  • 171320Z 07008KT CAVOK 20/09 Q1017 NOSIG

METARs EXPIRÉS :
  • 171250Z 06005KT 020V100 CAVOK 19/08 Q1017 NOSIG
  • 171220Z VRB05KT CAVOK 19/09 Q1018 NOSIG
  • 171150Z 34003KT 290V060 CAVOK 18/09 Q1018 NOSIG
  • 171120Z 33003KT 280V060 CAVOK 17/08 Q1019 NOSIG
  • 171050Z VRB03KT CAVOK 16/09 Q1019 NOSIG

TAF TAF LSZH
Valide du 17 à 12h jusqu'au 18 à 18h UTC


171125Z 1712/1818 VRB03KT CAVOK TX20/1714Z TN05/1805Z TX18/1803Z
PROB40
TEMPO 1712/1716 04006KT CAVOK
BECMG 1723/1802 6000 NSC
PROB40 1800/1803 4000 MIFG
BECMG 1801/1804 BKN008
BECMG 1807/1810 05008KT SCT012
BECMG 1811/1814 CAVOK
ATIS : +41 43 816 2295 (DEP) +41 43 816 2294 (ARR)
Pas de NOTAMs connus pour ce terrain.



MET'MAP, la Météo Aéronautique d'un coup d'oeil ! - Copyright ORBIFLY Décembre 2007 - Disclaimer

ORBIFLY MET'MAP TEAM :

Programmation & Développement : Alexandra Zaïnal
Conception & Développement : Baudouin d'Aumeries
Co-Programmation & Développement : Marc-Olivier Méhu
Soutien technique & logistique : Manuel Goepfert

Contact : metmap@orbifly.com




SOURCES & CREDITS :

   NOAA